sensor_id;sensor_type;location;lat;lon;timestamp;pressure;altitude;pressure_sealevel;temperature;humidity
75317;BME280;63913;51.492;10.368;2023-03-04T00:00:04;98992.22;;;0.88;84.96
75317;BME280;63913;51.492;10.368;2023-03-04T00:02:35;98994.94;;;0.91;84.93
75317;BME280;63913;51.492;10.368;2023-03-04T00:05:00;98982.09;;;0.88;85.19
75317;BME280;63913;51.492;10.368;2023-03-04T00:07:27;98987.34;;;0.91;84.82
75317;BME280;63913;51.492;10.368;2023-03-04T00:09:53;98979.97;;;0.94;84.94
75317;BME280;63913;51.492;10.368;2023-03-04T00:12:18;98987.44;;;0.93;84.56
75317;BME280;63913;51.492;10.368;2023-03-04T00:14:43;98977.44;;;0.94;84.67
75317;BME280;63913;51.492;10.368;2023-03-04T00:17:09;98978.50;;;0.98;84.18
75317;BME280;63913;51.492;10.368;2023-03-04T00:19:34;98972.47;;;0.96;84.47
75317;BME280;63913;51.492;10.368;2023-03-04T00:22:00;98981.03;;;0.98;84.23
75317;BME280;63913;51.492;10.368;2023-03-04T00:24:26;98980.25;;;0.99;84.00
75317;BME280;63913;51.492;10.368;2023-03-04T00:26:51;98977.06;;;1.01;83.87
75317;BME280;63913;51.492;10.368;2023-03-04T00:29:16;98977.72;;;0.99;83.90
75317;BME280;63913;51.492;10.368;2023-03-04T00:31:41;98974.41;;;1.00;83.85
75317;BME280;63913;51.492;10.368;2023-03-04T00:34:07;98965.06;;;0.99;84.04
75317;BME280;63913;51.492;10.368;2023-03-04T00:36:32;98962.75;;;1.02;83.82
75317;BME280;63913;51.492;10.368;2023-03-04T00:38:58;98961.31;;;1.05;83.39
75317;BME280;63913;51.492;10.368;2023-03-04T00:41:23;98967.22;;;1.06;83.38
75317;BME280;63913;51.492;10.368;2023-03-04T00:43:48;98964.91;;;1.09;83.43
75317;BME280;63913;51.492;10.368;2023-03-04T00:46:14;98969.19;;;1.10;83.47
75317;BME280;63913;51.492;10.368;2023-03-04T00:48:39;98969.97;;;1.09;83.00
75317;BME280;63913;51.492;10.368;2023-03-04T00:51:05;98970.09;;;1.10;83.22
75317;BME280;63913;51.492;10.368;2023-03-04T00:53:30;98960.06;;;1.12;83.06
75317;BME280;63913;51.492;10.368;2023-03-04T00:55:56;98960.72;;;1.09;83.23
75317;BME280;63913;51.492;10.368;2023-03-04T00:58:21;98954.69;;;1.07;83.34
75317;BME280;63913;51.492;10.368;2023-03-04T01:00:47;98952.03;;;1.06;83.35
75317;BME280;63913;51.492;10.368;2023-03-04T01:03:12;98956.31;;;1.07;83.40
75317;BME280;63913;51.492;10.368;2023-03-04T01:05:38;98957.63;;;1.13;83.11
75317;BME280;63913;51.492;10.368;2023-03-04T01:08:03;98969.50;;;1.14;83.04
75317;BME280;63913;51.492;10.368;2023-03-04T01:10:29;98962.69;;;1.13;82.81
75317;BME280;63913;51.492;10.368;2023-03-04T01:12:55;98963.16;;;1.08;83.17
75317;BME280;63913;51.492;10.368;2023-03-04T01:15:20;98955.66;;;1.09;83.25
75317;BME280;63913;51.492;10.368;2023-03-04T01:17:46;98956.53;;;1.10;82.85
75317;BME280;63913;51.492;10.368;2023-03-04T01:20:11;98948.19;;;1.11;83.13
75317;BME280;63913;51.492;10.368;2023-03-04T01:22:37;98954.13;;;1.11;83.19
75317;BME280;63913;51.492;10.368;2023-03-04T01:25:02;98945.44;;;1.08;83.17
75317;BME280;63913;51.492;10.368;2023-03-04T01:27:28;98953.13;;;1.09;83.08
75317;BME280;63913;51.492;10.368;2023-03-04T01:29:53;98937.16;;;1.10;82.87
75317;BME280;63913;51.492;10.368;2023-03-04T01:32:21;98937.28;;;1.12;82.99
75317;BME280;63913;51.492;10.368;2023-03-04T01:34:47;98933.16;;;1.14;82.88
75317;BME280;63913;51.492;10.368;2023-03-04T01:37:12;98933.16;;;1.14;82.80
75317;BME280;63913;51.492;10.368;2023-03-04T01:39:38;98931.63;;;1.16;83.07
75317;BME280;63913;51.492;10.368;2023-03-04T01:42:04;98926.56;;;1.16;82.96
75317;BME280;63913;51.492;10.368;2023-03-04T01:44:30;98918.97;;;1.16;83.06
75317;BME280;63913;51.492;10.368;2023-03-04T01:46:56;98916.44;;;1.16;82.71
75317;BME280;63913;51.492;10.368;2023-03-04T01:49:23;98915.66;;;1.17;82.87
75317;BME280;63913;51.492;10.368;2023-03-04T01:51:51;98912.34;;;1.18;82.62
75317;BME280;63913;51.492;10.368;2023-03-04T01:54:18;98914.78;;;1.17;82.76
75317;BME280;63913;51.492;10.368;2023-03-04T01:56:46;98909.72;;;1.17;82.65
75317;BME280;63913;51.492;10.368;2023-03-04T01:59:13;98909.03;;;1.19;82.88
75317;BME280;63913;51.492;10.368;2023-03-04T02:01:40;98906.41;;;1.18;82.68
75317;BME280;63913;51.492;10.368;2023-03-04T02:04:07;98900.84;;;1.10;83.07
75317;BME280;63913;51.492;10.368;2023-03-04T02:06:34;98901.06;;;1.13;82.86
75317;BME280;63913;51.492;10.368;2023-03-04T02:09:00;98896.88;;;1.13;82.78
75317;BME280;63913;51.492;10.368;2023-03-04T02:11:25;98888.56;;;1.16;82.73
75317;BME280;63913;51.492;10.368;2023-03-04T02:13:51;98895.19;;;1.14;82.66
75317;BME280;63913;51.492;10.368;2023-03-04T02:16:18;98892.56;;;1.12;82.81
75317;BME280;63913;51.492;10.368;2023-03-04T02:18:43;98889.28;;;1.13;82.65
75317;BME280;63913;51.492;10.368;2023-03-04T02:21:24;98884.50;;;1.18;82.43
75317;BME280;63913;51.492;10.368;2023-03-04T02:24:11;98882.06;;;1.20;82.34
75317;BME280;63913;51.492;10.368;2023-03-04T02:26:40;98876.13;;;1.19;82.29
75317;BME280;63913;51.492;10.368;2023-03-04T02:29:13;98869.31;;;1.18;81.99
75317;BME280;63913;51.492;10.368;2023-03-04T02:31:42;98873.59;;;1.19;81.91
75317;BME280;63913;51.492;10.368;2023-03-04T02:34:20;98872.13;;;1.23;81.73
75317;BME280;63913;51.492;10.368;2023-03-04T02:36:47;98864.44;;;1.21;82.02
75317;BME280;63913;51.492;10.368;2023-03-04T02:39:22;98863.75;;;1.24;81.87
75317;BME280;63913;51.492;10.368;2023-03-04T02:41:52;98864.63;;;1.24;81.78
75317;BME280;63913;51.492;10.368;2023-03-04T02:44:23;98865.50;;;1.25;81.65
75317;BME280;63913;51.492;10.368;2023-03-04T02:46:51;98862.97;;;1.25;81.81
75317;BME280;63913;51.492;10.368;2023-03-04T02:49:17;98873.31;;;1.28;81.76
75317;BME280;63913;51.492;10.368;2023-03-04T02:51:43;98859.56;;;1.24;81.24
75317;BME280;63913;51.492;10.368;2023-03-04T02:54:19;98863.06;;;1.26;81.33
75317;BME280;63913;51.492;10.368;2023-03-04T02:56:56;98855.47;;;1.26;81.53
75317;BME280;63913;51.492;10.368;2023-03-04T02:59:22;98854.88;;;1.30;81.33
75317;BME280;63913;51.492;10.368;2023-03-04T03:01:49;98856.47;;;1.28;81.44
75317;BME280;63913;51.492;10.368;2023-03-04T03:04:15;98853.72;;;1.25;81.53
75317;BME280;63913;51.492;10.368;2023-03-04T03:06:43;98851.28;;;1.27;81.48
75317;BME280;63913;51.492;10.368;2023-03-04T03:09:09;98860.53;;;1.26;81.52
75317;BME280;63913;51.492;10.368;2023-03-04T03:11:35;98851.28;;;1.27;81.41
75317;BME280;63913;51.492;10.368;2023-03-04T03:14:02;98846.22;;;1.27;81.67
75317;BME280;63913;51.492;10.368;2023-03-04T03:16:27;98857.34;;;1.29;81.49
75317;BME280;63913;51.492;10.368;2023-03-04T03:18:53;98856.47;;;1.28;81.56
75317;BME280;63913;51.492;10.368;2023-03-04T03:21:19;98848.53;;;1.24;81.73
75317;BME280;63913;51.492;10.368;2023-03-04T03:23:44;98841.16;;;1.27;81.78
75317;BME280;63913;51.492;10.368;2023-03-04T03:26:09;98844.75;;;1.30;81.62
75317;BME280;63913;51.492;10.368;2023-03-04T03:28:35;98846.44;;;1.30;81.58
75317;BME280;63913;51.492;10.368;2023-03-04T03:31:01;98843.97;;;1.31;81.58
75317;BME280;63913;51.492;10.368;2023-03-04T03:33:26;98845.72;;;1.32;81.53
75317;BME280;63913;51.492;10.368;2023-03-04T03:35:51;98845.63;;;1.31;81.57
75317;BME280;63913;51.492;10.368;2023-03-04T03:38:17;98844.56;;;1.27;81.57
75317;BME280;63913;51.492;10.368;2023-03-04T03:40:42;98838.91;;;1.31;81.48
75317;BME280;63913;51.492;10.368;2023-03-04T03:43:07;98850.91;;;1.34;81.60
75317;BME280;63913;51.492;10.368;2023-03-04T03:45:33;98847.59;;;1.35;81.53
75317;BME280;63913;51.492;10.368;2023-03-04T03:47:58;98848.97;;;1.30;81.57
75317;BME280;63913;51.492;10.368;2023-03-04T03:50:24;98845.63;;;1.31;81.50
75317;BME280;63913;51.492;10.368;2023-03-04T03:52:49;98843.09;;;1.31;81.57
75317;BME280;63913;51.492;10.368;2023-03-04T03:55:14;98842.41;;;1.33;81.30
75317;BME280;63913;51.492;10.368;2023-03-04T03:57:40;98843.41;;;1.35;81.25
75317;BME280;63913;51.492;10.368;2023-03-04T04:00:06;98843.19;;;1.32;81.28
75317;BME280;63913;51.492;10.368;2023-03-04T04:02:37;98841.75;;;1.36;81.45
75317;BME280;63913;51.492;10.368;2023-03-04T04:05:03;98835.59;;;1.32;81.58
75317;BME280;63913;51.492;10.368;2023-03-04T04:07:29;98834.03;;;1.34;81.28
75317;BME280;63913;51.492;10.368;2023-03-04T04:09:54;98823.72;;;1.31;81.20
75317;BME280;63913;51.492;10.368;2023-03-04T04:12:19;98824.69;;;1.33;81.14
75317;BME280;63913;51.492;10.368;2023-03-04T04:14:45;98821.94;;;1.30;81.40
75317;BME280;63913;51.492;10.368;2023-03-04T04:17:10;98819.53;;;1.32;81.26
75317;BME280;63913;51.492;10.368;2023-03-04T04:19:36;98821.19;;;1.31;81.32
75317;BME280;63913;51.492;10.368;2023-03-04T04:22:02;98824.78;;;1.35;81.05
75317;BME280;63913;51.492;10.368;2023-03-04T04:24:27;98818.06;;;1.35;81.47
75317;BME280;63913;51.492;10.368;2023-03-04T04:26:53;98822.47;;;1.38;80.97
75317;BME280;63913;51.492;10.368;2023-03-04T04:29:18;98819.06;;;1.37;80.89
75317;BME280;63913;51.492;10.368;2023-03-04T04:31:44;98814.00;;;1.37;81.26
75317;BME280;63913;51.492;10.368;2023-03-04T04:34:09;98821.59;;;1.37;81.02
75317;BME280;63913;51.492;10.368;2023-03-04T04:36:34;98816.53;;;1.37;80.93
75317;BME280;63913;51.492;10.368;2023-03-04T04:39:00;98819.06;;;1.37;81.16
75317;BME280;63913;51.492;10.368;2023-03-04T04:41:28;98811.47;;;1.37;81.22
75317;BME280;63913;51.492;10.368;2023-03-04T04:43:54;98816.59;;;1.39;81.08
75317;BME280;63913;51.492;10.368;2023-03-04T04:46:20;98810.06;;;1.42;81.00
75317;BME280;63913;51.492;10.368;2023-03-04T04:48:45;98811.06;;;1.44;80.75
75317;BME280;63913;51.492;10.368;2023-03-04T04:51:11;98809.41;;;1.45;80.96
75317;BME280;63913;51.492;10.368;2023-03-04T04:53:36;98815.41;;;1.47;80.97
75317;BME280;63913;51.492;10.368;2023-03-04T04:56:13;98806.47;;;1.52;80.58
75317;BME280;63913;51.492;10.368;2023-03-04T04:58:40;98814.63;;;1.48;80.89
75317;BME280;63913;51.492;10.368;2023-03-04T05:01:06;98815.41;;;1.47;80.72
75317;BME280;63913;51.492;10.368;2023-03-04T05:03:33;98813.75;;;1.47;80.87
75317;BME280;63913;51.492;10.368;2023-03-04T05:05:59;98808.69;;;1.47;80.93
75317;BME280;63913;51.492;10.368;2023-03-04T05:08:24;98805.38;;;1.48;80.77
75317;BME280;63913;51.492;10.368;2023-03-04T05:10:50;98808.13;;;1.51;80.63
75317;BME280;63913;51.492;10.368;2023-03-04T05:13:16;98813.19;;;1.51;80.96
75317;BME280;63913;51.492;10.368;2023-03-04T05:15:41;98809.09;;;1.53;80.84
75317;BME280;63913;51.492;10.368;2023-03-04T05:18:06;98801.50;;;1.53;80.90
75317;BME280;63913;51.492;10.368;2023-03-04T05:20:32;98809.16;;;1.55;80.68
75317;BME280;63913;51.492;10.368;2023-03-04T05:22:57;98816.09;;;1.58;80.88
75317;BME280;63913;51.492;10.368;2023-03-04T05:25:25;98809.25;;;1.57;80.95
75317;BME280;63913;51.492;10.368;2023-03-04T05:27:51;98811.78;;;1.57;81.12
75317;BME280;63913;51.492;10.368;2023-03-04T05:30:17;98810.13;;;1.57;80.97
75317;BME280;63913;51.492;10.368;2023-03-04T05:32:42;98803.22;;;1.54;81.36
75317;BME280;63913;51.492;10.368;2023-03-04T05:35:08;98805.75;;;1.54;81.26
75317;BME280;63913;51.492;10.368;2023-03-04T05:37:34;98805.84;;;1.56;81.23
75317;BME280;63913;51.492;10.368;2023-03-04T05:39:59;98808.38;;;1.56;81.04
75317;BME280;63913;51.492;10.368;2023-03-04T05:42:24;98809.25;;;1.57;81.51
75317;BME280;63913;51.492;10.368;2023-03-04T05:44:50;98801.66;;;1.57;81.59
75317;BME280;63913;51.492;10.368;2023-03-04T05:47:15;98805.19;;;1.59;81.28
75317;BME280;63913;51.492;10.368;2023-03-04T05:49:40;98806.84;;;1.58;81.76
75317;BME280;63913;51.492;10.368;2023-03-04T05:52:06;98808.50;;;1.58;81.71
75317;BME280;63913;51.492;10.368;2023-03-04T05:54:32;98803.41;;;1.58;81.56
75317;BME280;63913;51.492;10.368;2023-03-04T05:56:57;98806.06;;;1.59;82.10
75317;BME280;63913;51.492;10.368;2023-03-04T05:59:22;98801.97;;;1.61;81.73
75317;BME280;63913;51.492;10.368;2023-03-04T06:01:48;98800.09;;;1.59;81.70
75317;BME280;63913;51.492;10.368;2023-03-04T06:04:13;98801.75;;;1.58;81.90
75317;BME280;63913;51.492;10.368;2023-03-04T06:06:38;98815.31;;;1.59;81.98
75317;BME280;63913;51.492;10.368;2023-03-04T06:09:04;98809.47;;;1.60;82.12
75317;BME280;63913;51.492;10.368;2023-03-04T06:11:29;98813.03;;;1.63;82.23
75317;BME280;63913;51.492;10.368;2023-03-04T06:13:54;98811.38;;;1.64;82.10
75317;BME280;63913;51.492;10.368;2023-03-04T06:16:20;98812.38;;;1.66;81.87
75317;BME280;63913;51.492;10.368;2023-03-04T06:18:45;98808.09;;;1.65;82.03
75317;BME280;63913;51.492;10.368;2023-03-04T06:21:10;98804.50;;;1.61;82.10
75317;BME280;63913;51.492;10.368;2023-03-04T06:23:36;98806.25;;;1.62;82.07
75317;BME280;63913;51.492;10.368;2023-03-04T06:26:01;98803.72;;;1.62;82.03
75317;BME280;63913;51.492;10.368;2023-03-04T06:28:27;98809.63;;;1.63;82.22
75317;BME280;63913;51.492;10.368;2023-03-04T06:30:55;98811.38;;;1.64;82.28
75317;BME280;63913;51.492;10.368;2023-03-04T06:33:21;98809.06;;;1.67;82.48
75317;BME280;63913;51.492;10.368;2023-03-04T06:35:47;98815.09;;;1.69;82.37
75317;BME280;63913;51.492;10.368;2023-03-04T06:38:12;98811.78;;;1.70;82.46
75317;BME280;63913;51.492;10.368;2023-03-04T06:40:38;98811.78;;;1.70;82.39
75317;BME280;63913;51.492;10.368;2023-03-04T06:43:03;98808.44;;;1.71;82.77
75317;BME280;63913;51.492;10.368;2023-03-04T06:45:28;98812.75;;;1.72;82.51
75317;BME280;63913;51.492;10.368;2023-03-04T06:47:54;98818.69;;;1.72;82.81
75317;BME280;63913;51.492;10.368;2023-03-04T06:50:19;98815.47;;;1.75;82.53
75317;BME280;63913;51.492;10.368;2023-03-04T06:52:45;98819.00;;;1.77;82.70
75317;BME280;63913;51.492;10.368;2023-03-04T06:55:11;98814.00;;;1.78;82.81
75317;BME280;63913;51.492;10.368;2023-03-04T06:57:37;98811.47;;;1.78;83.03
75317;BME280;63913;51.492;10.368;2023-03-04T07:00:04;98822.56;;;1.80;82.89
75317;BME280;63913;51.492;10.368;2023-03-04T07:02:29;98825.09;;;1.80;83.00
75317;BME280;63913;51.492;10.368;2023-03-04T07:04:54;98819.16;;;1.80;83.01
75317;BME280;63913;51.492;10.368;2023-03-04T07:07:20;98825.97;;;1.81;82.76
75317;BME280;63913;51.492;10.368;2023-03-04T07:09:45;98812.53;;;1.82;83.02
75317;BME280;63913;51.492;10.368;2023-03-04T07:12:11;98809.22;;;1.83;82.66
75317;BME280;63913;51.492;10.368;2023-03-04T07:14:36;98817.78;;;1.85;82.33
75317;BME280;63913;51.492;10.368;2023-03-04T07:17:01;98823.03;;;1.88;82.21
75317;BME280;63913;51.492;10.368;2023-03-04T07:19:27;98822.25;;;1.89;82.46
75317;BME280;63913;51.492;10.368;2023-03-04T07:21:52;98824.09;;;1.91;82.29
75317;BME280;63913;51.492;10.368;2023-03-04T07:24:18;98830.22;;;1.95;82.38
75317;BME280;63913;51.492;10.368;2023-03-04T07:26:43;98819.25;;;1.95;82.67
75317;BME280;63913;51.492;10.368;2023-03-04T07:29:08;98824.47;;;1.98;82.26
75317;BME280;63913;51.492;10.368;2023-03-04T07:31:34;98811.13;;;2.00;82.16
75317;BME280;63913;51.492;10.368;2023-03-04T07:34:03;98814.63;;;2.02;82.39
75317;BME280;63913;51.492;10.368;2023-03-04T07:36:28;98814.78;;;2.05;82.20
75317;BME280;63913;51.492;10.368;2023-03-04T07:38:54;98818.41;;;2.09;82.33
75317;BME280;63913;51.492;10.368;2023-03-04T07:41:22;98818.50;;;2.10;82.49
75317;BME280;63913;51.492;10.368;2023-03-04T07:43:47;98815.66;;;2.06;82.55
75317;BME280;63913;51.492;10.368;2023-03-04T07:46:13;98822.69;;;2.10;82.39
75317;BME280;63913;51.492;10.368;2023-03-04T07:48:39;98810.28;;;2.14;82.39
75317;BME280;63913;51.492;10.368;2023-03-04T07:51:07;98806.97;;;2.15;82.03
75317;BME280;63913;51.492;10.368;2023-03-04T07:53:34;98813.09;;;2.19;81.69
75317;BME280;63913;51.492;10.368;2023-03-04T07:55:59;98812.22;;;2.18;81.93
75317;BME280;63913;51.492;10.368;2023-03-04T07:58:25;98804.88;;;2.23;81.84
75317;BME280;63913;51.492;10.368;2023-03-04T08:00:50;98811.81;;;2.25;81.74
75317;BME280;63913;51.492;10.368;2023-03-04T08:03:16;98812.16;;;2.32;81.58
75317;BME280;63913;51.492;10.368;2023-03-04T08:05:41;98813.91;;;2.33;81.68
75317;BME280;63913;51.492;10.368;2023-03-04T08:08:07;98804.75;;;2.35;81.54
75317;BME280;63913;51.492;10.368;2023-03-04T08:10:32;98808.41;;;2.40;81.80
75317;BME280;63913;51.492;10.368;2023-03-04T08:12:57;98807.72;;;2.42;81.74
75317;BME280;63913;51.492;10.368;2023-03-04T08:15:23;98811.81;;;2.40;82.04
75317;BME280;63913;51.492;10.368;2023-03-04T08:17:49;98811.19;;;2.44;82.00
75317;BME280;63913;51.492;10.368;2023-03-04T08:20:14;98809.53;;;2.45;82.12
75317;BME280;63913;51.492;10.368;2023-03-04T08:22:40;98801.06;;;2.44;82.31
75317;BME280;63913;51.492;10.368;2023-03-04T08:25:05;98810.31;;;2.44;82.72
75317;BME280;63913;51.492;10.368;2023-03-04T08:27:30;98805.25;;;2.44;83.19
75317;BME280;63913;51.492;10.368;2023-03-04T08:29:56;98801.06;;;2.44;82.50
75317;BME280;63913;51.492;10.368;2023-03-04T08:32:21;98800.28;;;2.45;82.84
75317;BME280;63913;51.492;10.368;2023-03-04T08:34:46;98804.91;;;2.52;82.95
75317;BME280;63913;51.492;10.368;2023-03-04T08:37:12;98798.28;;;2.54;81.75
75317;BME280;63913;51.492;10.368;2023-03-04T08:39:37;98790.75;;;2.56;81.96
75317;BME280;63913;51.492;10.368;2023-03-04T08:42:02;98794.34;;;2.59;82.03
75317;BME280;63913;51.492;10.368;2023-03-04T08:44:28;98793.81;;;2.65;81.61
75317;BME280;63913;51.492;10.368;2023-03-04T08:46:53;98790.84;;;2.72;81.67
75317;BME280;63913;51.492;10.368;2023-03-04T08:49:18;98800.38;;;2.76;81.42
75317;BME280;63913;51.492;10.368;2023-03-04T08:51:44;98797.03;;;2.77;81.41
75317;BME280;63913;51.492;10.368;2023-03-04T08:54:09;98797.94;;;2.78;81.03
75317;BME280;63913;51.492;10.368;2023-03-04T08:56:35;98799.69;;;2.79;81.00
75317;BME280;63913;51.492;10.368;2023-03-04T08:59:00;98791.97;;;2.77;81.32
75317;BME280;63913;51.492;10.368;2023-03-04T09:01:26;98796.53;;;2.83;81.36
75317;BME280;63913;51.492;10.368;2023-03-04T09:03:51;98799.00;;;2.81;81.49
75317;BME280;63913;51.492;10.368;2023-03-04T09:06:17;98804.16;;;2.83;81.78
75317;BME280;63913;51.492;10.368;2023-03-04T09:08:45;98805.72;;;2.81;81.84
75317;BME280;63913;51.492;10.368;2023-03-04T09:11:11;98808.81;;;2.75;82.36
75317;BME280;63913;51.492;10.368;2023-03-04T09:13:37;98803.72;;;2.75;82.48
75317;BME280;63913;51.492;10.368;2023-03-04T09:16:07;98793.72;;;2.78;82.80
75317;BME280;63913;51.492;10.368;2023-03-04T09:18:33;98794.50;;;2.77;82.73
75317;BME280;63913;51.492;10.368;2023-03-04T09:20:58;98803.09;;;2.79;82.66
75317;BME280;63913;51.492;10.368;2023-03-04T09:23:23;98804.75;;;2.79;83.33
75317;BME280;63913;51.492;10.368;2023-03-04T09:25:49;98801.69;;;2.84;83.12
75317;BME280;63913;51.492;10.368;2023-03-04T09:28:15;98802.50;;;2.83;83.21
75317;BME280;63913;51.492;10.368;2023-03-04T09:30:42;98793.91;;;2.81;82.93
75317;BME280;63913;51.492;10.368;2023-03-04T09:33:07;98794.00;;;2.83;83.59
75317;BME280;63913;51.492;10.368;2023-03-04T09:35:33;98795.91;;;2.87;84.13
75317;BME280;63913;51.492;10.368;2023-03-04T09:37:58;98792.69;;;2.89;83.74
75317;BME280;63913;51.492;10.368;2023-03-04T09:40:31;98798.09;;;2.95;83.76
75317;BME280;63913;51.492;10.368;2023-03-04T09:43:02;98799.94;;;2.98;83.84
75317;BME280;63913;51.492;10.368;2023-03-04T09:45:39;98794.88;;;2.98;83.54
75317;BME280;63913;51.492;10.368;2023-03-04T09:48:06;98798.19;;;2.97;83.97
75317;BME280;63913;51.492;10.368;2023-03-04T09:50:33;98795.03;;;3.01;84.05
75317;BME280;63913;51.492;10.368;2023-03-04T09:53:20;98790.66;;;2.98;84.76
75317;BME280;63913;51.492;10.368;2023-03-04T09:55:49;98802.31;;;2.95;84.29
75317;BME280;63913;51.492;10.368;2023-03-04T10:01:09;98784.63;;;2.96;85.04
75317;BME280;63913;51.492;10.368;2023-03-04T10:03:43;98786.63;;;3.02;85.06
75317;BME280;63913;51.492;10.368;2023-03-04T10:06:15;98780.50;;;2.98;85.18
75317;BME280;63913;51.492;10.368;2023-03-04T10:08:50;98782.16;;;2.98;85.13
75317;BME280;63913;51.492;10.368;2023-03-04T10:11:26;98777.09;;;2.98;84.95
75317;BME280;63913;51.492;10.368;2023-03-04T10:13:59;98782.25;;;2.99;84.88
75317;BME280;63913;51.492;10.368;2023-03-04T10:16:35;98785.75;;;3.01;84.80
75317;BME280;63913;51.492;10.368;2023-03-04T10:21:42;98779.19;;;3.05;84.59
75317;BME280;63913;51.492;10.368;2023-03-04T10:24:17;98780.84;;;3.04;84.09
75317;BME280;63913;51.492;10.368;2023-03-04T10:26:45;98775.13;;;3.08;84.60
75317;BME280;63913;51.492;10.368;2023-03-04T10:29:16;98777.94;;;3.13;83.91
75317;BME280;63913;51.492;10.368;2023-03-04T10:31:42;98766.13;;;3.14;84.12
75317;BME280;63913;51.492;10.368;2023-03-04T10:34:12;98778.19;;;3.18;83.97
75317;BME280;63913;51.492;10.368;2023-03-04T10:36:46;98778.97;;;3.17;84.12
75317;BME280;63913;51.492;10.368;2023-03-04T10:39:20;98782.22;;;3.14;84.62
75317;BME280;63913;51.492;10.368;2023-03-04T10:44:58;98779.69;;;3.14;85.18
75317;BME280;63913;51.492;10.368;2023-03-04T10:47:26;98782.06;;;3.11;85.66
75317;BME280;63913;51.492;10.368;2023-03-04T10:49:55;98783.72;;;3.11;86.37
75317;BME280;63913;51.492;10.368;2023-03-04T10:52:38;98782.75;;;3.08;86.46
75317;BME280;63913;51.492;10.368;2023-03-04T10:55:16;98772.88;;;3.13;86.33
75317;BME280;63913;51.492;10.368;2023-03-04T10:57:44;98772.78;;;3.12;86.31
75317;BME280;63913;51.492;10.368;2023-03-04T11:00:35;98765.94;;;3.11;86.42
75317;BME280;63913;51.492;10.368;2023-03-04T11:06:06;98768.66;;;3.14;86.78
75317;BME280;63913;51.492;10.368;2023-03-04T11:08:34;98758.59;;;3.15;87.24
75317;BME280;63913;51.492;10.368;2023-03-04T11:10:59;98758.72;;;3.18;86.75
75317;BME280;63913;51.492;10.368;2023-03-04T11:13:25;98767.13;;;3.17;87.33
75317;BME280;63913;51.492;10.368;2023-03-04T11:15:56;98761.28;;;3.18;87.47
75317;BME280;63913;51.492;10.368;2023-03-04T11:18:40;98753.66;;;3.18;87.62
75317;BME280;63913;51.492;10.368;2023-03-04T11:21:13;98756.97;;;3.17;87.52
75317;BME280;63913;51.492;10.368;2023-03-04T11:23:58;98762.25;;;3.20;87.76
75317;BME280;63913;51.492;10.368;2023-03-04T11:26:30;98764.22;;;3.26;87.61
75317;BME280;63913;51.492;10.368;2023-03-04T11:29:25;98752.69;;;3.31;87.03
75317;BME280;63913;51.492;10.368;2023-03-04T11:32:09;98750.47;;;3.37;86.86
75317;BME280;63913;51.492;10.368;2023-03-04T11:34:53;98750.69;;;3.41;86.60
75317;BME280;63913;51.492;10.368;2023-03-04T11:37:37;98753.50;;;3.46;86.20
75317;BME280;63913;51.492;10.368;2023-03-04T11:40:17;98742.47;;;3.45;86.77
75317;BME280;63913;51.492;10.368;2023-03-04T11:43:08;98739.91;;;3.45;86.35
75317;BME280;63913;51.492;10.368;2023-03-04T11:48:35;98744.69;;;3.39;85.89
75317;BME280;63913;51.492;10.368;2023-03-04T11:51:37;98737.06;;;3.39;86.38
75317;BME280;63913;51.492;10.368;2023-03-04T11:54:15;98732.91;;;3.41;86.38
75317;BME280;63913;51.492;10.368;2023-03-04T12:15:48;98724.25;;;3.38;90.14
75317;BME280;63913;51.492;10.368;2023-03-04T12:21:16;98702.66;;;3.46;90.29
75317;BME280;63913;51.492;10.368;2023-03-04T12:26:37;98695.63;;;3.57;90.02
75317;BME280;63913;51.492;10.368;2023-03-04T12:29:33;98691.63;;;3.62;89.52
75317;BME280;63913;51.492;10.368;2023-03-04T12:32:23;98694.97;;;3.61;89.04
75317;BME280;63913;51.492;10.368;2023-03-04T12:34:59;98697.44;;;3.59;88.76
75317;BME280;63913;51.492;10.368;2023-03-04T12:40:22;98693.91;;;3.57;88.72
75317;BME280;63913;51.492;10.368;2023-03-04T12:43:00;98696.94;;;3.50;89.10
75317;BME280;63913;51.492;10.368;2023-03-04T12:45:31;98709.72;;;3.52;89.35
75317;BME280;63913;51.492;10.368;2023-03-04T12:51:16;98691.81;;;3.49;90.24
75317;BME280;63913;51.492;10.368;2023-03-04T12:56:42;98684.22;;;3.50;89.66
75317;BME280;63913;51.492;10.368;2023-03-04T12:59:14;98677.56;;;3.52;90.17
75317;BME280;63913;51.492;10.368;2023-03-04T13:07:42;98693.38;;;3.47;90.72
75317;BME280;63913;51.492;10.368;2023-03-04T13:10:16;98678.03;;;3.45;91.00
75317;BME280;63913;51.492;10.368;2023-03-04T13:15:26;98686.78;;;3.50;90.50
75317;BME280;63913;51.492;10.368;2023-03-04T13:17:52;98673.13;;;3.48;89.91
75317;BME280;63913;51.492;10.368;2023-03-04T13:20:40;98671.22;;;3.44;89.88
75317;BME280;63913;51.492;10.368;2023-03-04T13:23:23;98662.97;;;3.48;90.32
75317;BME280;63913;51.492;10.368;2023-03-04T13:28:29;98653.69;;;3.49;89.94
75317;BME280;63913;51.492;10.368;2023-03-04T13:35:49;98652.31;;;3.71;88.95
75317;BME280;63913;51.492;10.368;2023-03-04T13:41:14;98650.25;;;3.80;88.45
75317;BME280;63913;51.492;10.368;2023-03-04T13:43:50;98647.03;;;3.84;88.75
75317;BME280;63913;51.492;10.368;2023-03-04T13:56:36;98649.25;;;3.95;86.22
75317;BME280;63913;51.492;10.368;2023-03-04T14:01:35;98638.50;;;4.00;85.20
75317;BME280;63913;51.492;10.368;2023-03-04T14:06:41;98635.84;;;3.97;84.07
75317;BME280;63913;51.492;10.368;2023-03-04T14:09:20;98636.56;;;3.95;84.03
75317;BME280;63913;51.492;10.368;2023-03-04T14:11:47;98638.91;;;3.92;84.32
75317;BME280;63913;51.492;10.368;2023-03-04T14:14:26;98623.59;;;3.90;84.73
75317;BME280;63913;51.492;10.368;2023-03-04T14:16:55;98632.75;;;3.87;84.61
75317;BME280;63913;51.492;10.368;2023-03-04T14:19:25;98637.75;;;3.85;84.46
75317;BME280;63913;51.492;10.368;2023-03-04T14:21:52;98630.13;;;3.85;85.14
75317;BME280;63913;51.492;10.368;2023-03-04T14:24:19;98636.25;;;3.89;85.41
75317;BME280;63913;51.492;10.368;2023-03-04T14:26:45;98640.38;;;3.87;85.04